sensor_id;sensor_type;location;lat;lon;timestamp;temperature;humidity
66629;DHT22;53532;53.084;6.352;2022-10-16T08:57:41;15.10;99.90
66629;DHT22;53532;53.084;6.352;2022-10-16T09:00:13;15.00;99.90
66629;DHT22;53532;53.084;6.352;2022-10-16T09:02:44;15.00;99.90
66629;DHT22;53532;53.084;6.352;2022-10-16T09:05:34;15.10;99.90
66629;DHT22;53532;53.084;6.352;2022-10-16T09:08:07;15.10;99.90
66629;DHT22;53532;53.084;6.352;2022-10-16T09:10:44;15.30;99.90
66629;DHT22;53532;53.084;6.352;2022-10-16T09:13:19;15.30;99.90
66629;DHT22;53532;53.084;6.352;2022-10-16T09:15:54;15.30;99.90
66629;DHT22;53532;53.084;6.352;2022-10-16T09:18:26;15.40;99.90
66629;DHT22;53532;53.084;6.352;2022-10-16T09:21:01;15.40;99.90
66629;DHT22;53532;53.084;6.352;2022-10-16T09:23:35;15.50;99.90
66629;DHT22;53532;53.084;6.352;2022-10-16T09:26:13;15.70;99.90
66629;DHT22;53532;53.084;6.352;2022-10-16T09:28:42;15.80;99.90
66629;DHT22;53532;53.084;6.352;2022-10-16T09:31:13;15.90;99.90
66629;DHT22;53532;53.084;6.352;2022-10-16T09:33:41;16.00;99.90
66629;DHT22;53532;53.084;6.352;2022-10-16T09:36:08;16.00;99.90
66629;DHT22;53532;53.084;6.352;2022-10-16T09:38:35;16.10;99.90
66629;DHT22;53532;53.084;6.352;2022-10-16T09:41:03;16.20;99.90
66629;DHT22;53532;53.084;6.352;2022-10-16T09:43:40;16.20;99.90
66629;DHT22;53532;53.084;6.352;2022-10-16T09:46:08;16.20;99.90
66629;DHT22;53532;53.084;6.352;2022-10-16T09:48:37;16.20;99.90
66629;DHT22;53532;53.084;6.352;2022-10-16T09:51:05;16.20;99.90
66629;DHT22;53532;53.084;6.352;2022-10-16T09:53:42;16.30;99.90
66629;DHT22;53532;53.084;6.352;2022-10-16T09:56:09;16.40;99.90
66629;DHT22;53532;53.084;6.352;2022-10-16T09:58:35;16.40;99.90
66629;DHT22;53532;53.084;6.352;2022-10-16T10:01:04;16.40;99.90
66629;DHT22;53532;53.084;6.352;2022-10-16T10:03:38;16.40;99.90
66629;DHT22;53532;53.084;6.352;2022-10-16T10:06:14;16.40;99.90
66629;DHT22;53532;53.084;6.352;2022-10-16T10:08:53;16.50;99.90
66629;DHT22;53532;53.084;6.352;2022-10-16T10:11:38;16.50;99.90
66629;DHT22;53532;53.084;6.352;2022-10-16T10:14:04;16.50;99.90
66629;DHT22;53532;53.084;6.352;2022-10-16T10:16:32;16.50;99.90
66629;DHT22;53532;53.084;6.352;2022-10-16T10:18:58;16.50;99.90
66629;DHT22;53532;53.084;6.352;2022-10-16T10:21:24;16.50;99.90
66629;DHT22;53532;53.084;6.352;2022-10-16T10:23:55;16.50;99.90
66629;DHT22;53532;53.084;6.352;2022-10-16T10:26:24;16.60;99.90
66629;DHT22;53532;53.084;6.352;2022-10-16T10:28:57;16.60;99.90
66629;DHT22;53532;53.084;6.352;2022-10-16T10:31:29;16.60;99.90
66629;DHT22;53532;53.084;6.352;2022-10-16T10:34:06;16.60;99.90
66629;DHT22;53532;53.084;6.352;2022-10-16T10:36:37;16.60;99.90
66629;DHT22;53532;53.084;6.352;2022-10-16T10:39:06;16.70;99.90
66629;DHT22;53532;53.084;6.352;2022-10-16T10:41:57;16.70;99.90
66629;DHT22;53532;53.084;6.352;2022-10-16T10:44:43;16.70;99.90
66629;DHT22;53532;53.084;6.352;2022-10-16T10:47:21;16.80;99.90
66629;DHT22;53532;53.084;6.352;2022-10-16T10:49:57;16.80;99.90
66629;DHT22;53532;53.084;6.352;2022-10-16T10:52:41;16.80;99.90
66629;DHT22;53532;53.084;6.352;2022-10-16T10:55:18;16.90;99.90
66629;DHT22;53532;53.084;6.352;2022-10-16T10:58:06;16.90;99.90
66629;DHT22;53532;53.084;6.352;2022-10-16T11:00:45;17.00;99.90
66629;DHT22;53532;53.084;6.352;2022-10-16T11:03:26;17.00;99.90
66629;DHT22;53532;53.084;6.352;2022-10-16T11:05:57;17.00;99.90
66629;DHT22;53532;53.084;6.352;2022-10-16T11:08:29;17.10;99.90
66629;DHT22;53532;53.084;6.352;2022-10-16T11:11:00;17.00;99.90
66629;DHT22;53532;53.084;6.352;2022-10-16T11:13:32;17.00;99.90
66629;DHT22;53532;53.084;6.352;2022-10-16T11:15:59;17.10;99.90
66629;DHT22;53532;53.084;6.352;2022-10-16T11:18:30;17.10;99.90
66629;DHT22;53532;53.084;6.352;2022-10-16T11:21:02;17.10;99.90
66629;DHT22;53532;53.084;6.352;2022-10-16T11:23:30;17.10;99.90
66629;DHT22;53532;53.084;6.352;2022-10-16T11:26:00;17.00;99.90
66629;DHT22;53532;53.084;6.352;2022-10-16T11:28:32;16.90;99.90
66629;DHT22;53532;53.084;6.352;2022-10-16T11:31:02;16.80;99.90
66629;DHT22;53532;53.084;6.352;2022-10-16T11:33:32;16.70;99.90
66629;DHT22;53532;53.084;6.352;2022-10-16T11:36:11;16.50;99.90
66629;DHT22;53532;53.084;6.352;2022-10-16T11:38:43;16.30;99.90
66629;DHT22;53532;53.084;6.352;2022-10-16T11:41:15;16.20;99.90
66629;DHT22;53532;53.084;6.352;2022-10-16T11:43:48;16.10;99.90
66629;DHT22;53532;53.084;6.352;2022-10-16T11:46:19;16.00;99.90
66629;DHT22;53532;53.084;6.352;2022-10-16T11:48:49;15.90;99.90
66629;DHT22;53532;53.084;6.352;2022-10-16T11:51:24;16.00;99.90
66629;DHT22;53532;53.084;6.352;2022-10-16T11:53:55;16.10;99.90
66629;DHT22;53532;53.084;6.352;2022-10-16T11:56:23;16.20;99.90
66629;DHT22;53532;53.084;6.352;2022-10-16T11:58:55;16.40;99.90
66629;DHT22;53532;53.084;6.352;2022-10-16T12:01:28;16.50;99.90
66629;DHT22;53532;53.084;6.352;2022-10-16T12:04:06;16.60;99.90
66629;DHT22;53532;53.084;6.352;2022-10-16T12:06:42;16.80;99.90
66629;DHT22;53532;53.084;6.352;2022-10-16T12:09:14;17.00;99.90
66629;DHT22;53532;53.084;6.352;2022-10-16T12:11:40;17.10;99.90
66629;DHT22;53532;53.084;6.352;2022-10-16T12:14:33;17.20;99.90
66629;DHT22;53532;53.084;6.352;2022-10-16T12:17:02;17.30;99.90
66629;DHT22;53532;53.084;6.352;2022-10-16T12:19:32;17.30;99.90
66629;DHT22;53532;53.084;6.352;2022-10-16T12:22:01;17.30;99.90
66629;DHT22;53532;53.084;6.352;2022-10-16T12:24:32;17.30;99.90
66629;DHT22;53532;53.084;6.352;2022-10-16T12:26:59;17.40;99.90
66629;DHT22;53532;53.084;6.352;2022-10-16T12:29:32;17.50;99.90
66629;DHT22;53532;53.084;6.352;2022-10-16T12:31:59;17.70;99.90
66629;DHT22;53532;53.084;6.352;2022-10-16T12:34:28;17.80;99.90
66629;DHT22;53532;53.084;6.352;2022-10-16T12:36:55;17.90;99.90
66629;DHT22;53532;53.084;6.352;2022-10-16T12:39:35;18.00;99.90
66629;DHT22;53532;53.084;6.352;2022-10-16T12:42:04;18.10;99.90
66629;DHT22;53532;53.084;6.352;2022-10-16T12:44:34;18.20;99.90
66629;DHT22;53532;53.084;6.352;2022-10-16T12:47:00;18.30;99.90
66629;DHT22;53532;53.084;6.352;2022-10-16T12:49:31;18.30;99.90
66629;DHT22;53532;53.084;6.352;2022-10-16T12:51:57;18.40;99.90
66629;DHT22;53532;53.084;6.352;2022-10-16T12:54:27;18.40;99.90
66629;DHT22;53532;53.084;6.352;2022-10-16T12:57:09;18.40;99.90
66629;DHT22;53532;53.084;6.352;2022-10-16T12:59:43;18.40;99.90
66629;DHT22;53532;53.084;6.352;2022-10-16T13:02:39;18.40;99.90
66629;DHT22;53532;53.084;6.352;2022-10-16T13:05:28;18.40;99.90
66629;DHT22;53532;53.084;6.352;2022-10-16T13:08:09;18.30;99.90
66629;DHT22;53532;53.084;6.352;2022-10-16T13:10:41;18.30;99.90
66629;DHT22;53532;53.084;6.352;2022-10-16T13:13:22;18.10;99.90
66629;DHT22;53532;53.084;6.352;2022-10-16T13:15:59;18.10;99.90
66629;DHT22;53532;53.084;6.352;2022-10-16T13:18:33;18.00;99.90
66629;DHT22;53532;53.084;6.352;2022-10-16T13:21:11;17.90;99.90
66629;DHT22;53532;53.084;6.352;2022-10-16T13:23:45;17.80;99.90
66629;DHT22;53532;53.084;6.352;2022-10-16T13:26:20;17.70;99.90
66629;DHT22;53532;53.084;6.352;2022-10-16T13:28:49;17.60;99.90
66629;DHT22;53532;53.084;6.352;2022-10-16T13:31:18;17.50;99.90
66629;DHT22;53532;53.084;6.352;2022-10-16T13:33:47;17.60;99.90
66629;DHT22;53532;53.084;6.352;2022-10-16T13:36:21;17.60;99.90
66629;DHT22;53532;53.084;6.352;2022-10-16T13:38:48;17.60;99.90
66629;DHT22;53532;53.084;6.352;2022-10-16T13:41:16;17.70;99.90
66629;DHT22;53532;53.084;6.352;2022-10-16T13:43:44;17.70;99.90
66629;DHT22;53532;53.084;6.352;2022-10-16T13:46:14;17.70;99.90
66629;DHT22;53532;53.084;6.352;2022-10-16T13:48:41;17.60;99.90
66629;DHT22;53532;53.084;6.352;2022-10-16T13:51:12;17.60;99.90
66629;DHT22;53532;53.084;6.352;2022-10-16T13:53:39;17.50;99.90
66629;DHT22;53532;53.084;6.352;2022-10-16T13:56:07;17.30;99.90
66629;DHT22;53532;53.084;6.352;2022-10-16T13:58:35;17.20;99.90
66629;DHT22;53532;53.084;6.352;2022-10-16T14:01:04;17.10;99.90
66629;DHT22;53532;53.084;6.352;2022-10-16T14:03:33;17.10;99.90
66629;DHT22;53532;53.084;6.352;2022-10-16T14:06:03;17.00;99.90
66629;DHT22;53532;53.084;6.352;2022-10-16T14:08:30;17.00;99.90
66629;DHT22;53532;53.084;6.352;2022-10-16T14:10:57;16.90;99.90
66629;DHT22;53532;53.084;6.352;2022-10-16T14:13:30;16.90;99.90
66629;DHT22;53532;53.084;6.352;2022-10-16T14:15:59;16.80;99.90
66629;DHT22;53532;53.084;6.352;2022-10-16T14:18:28;16.80;99.90
66629;DHT22;53532;53.084;6.352;2022-10-16T14:21:03;16.70;99.90
66629;DHT22;53532;53.084;6.352;2022-10-16T14:23:31;16.60;99.90
66629;DHT22;53532;53.084;6.352;2022-10-16T14:26:06;16.50;99.90
66629;DHT22;53532;53.084;6.352;2022-10-16T14:28:41;16.40;99.90
66629;DHT22;53532;53.084;6.352;2022-10-16T14:31:25;16.30;99.90
66629;DHT22;53532;53.084;6.352;2022-10-16T14:33:50;16.20;99.90
66629;DHT22;53532;53.084;6.352;2022-10-16T14:36:18;16.10;99.90
66629;DHT22;53532;53.084;6.352;2022-10-16T14:38:49;16.10;99.90
66629;DHT22;53532;53.084;6.352;2022-10-16T14:41:20;16.00;99.90
66629;DHT22;53532;53.084;6.352;2022-10-16T14:43:50;15.90;99.90
66629;DHT22;53532;53.084;6.352;2022-10-16T14:46:22;15.90;99.90
66629;DHT22;53532;53.084;6.352;2022-10-16T14:48:56;15.80;99.90
66629;DHT22;53532;53.084;6.352;2022-10-16T14:51:25;15.80;99.90
66629;DHT22;53532;53.084;6.352;2022-10-16T14:53:51;15.70;99.90
66629;DHT22;53532;53.084;6.352;2022-10-16T14:56:19;15.70;99.90
66629;DHT22;53532;53.084;6.352;2022-10-16T14:58:45;15.60;99.90
66629;DHT22;53532;53.084;6.352;2022-10-16T15:01:11;15.60;99.90
66629;DHT22;53532;53.084;6.352;2022-10-16T15:03:37;15.60;99.90
66629;DHT22;53532;53.084;6.352;2022-10-16T15:06:03;15.50;99.90
66629;DHT22;53532;53.084;6.352;2022-10-16T15:08:30;15.50;99.90
66629;DHT22;53532;53.084;6.352;2022-10-16T15:10:56;15.50;99.90
66629;DHT22;53532;53.084;6.352;2022-10-16T15:13:22;15.50;99.90
66629;DHT22;53532;53.084;6.352;2022-10-16T15:15:47;15.50;99.90
66629;DHT22;53532;53.084;6.352;2022-10-16T15:18:14;15.50;99.90
66629;DHT22;53532;53.084;6.352;2022-10-16T15:20:49;15.50;99.90
66629;DHT22;53532;53.084;6.352;2022-10-16T15:23:18;15.50;99.90
66629;DHT22;53532;53.084;6.352;2022-10-16T15:25:46;15.50;99.90
66629;DHT22;53532;53.084;6.352;2022-10-16T15:28:16;15.40;99.90
66629;DHT22;53532;53.084;6.352;2022-10-16T15:30:42;15.40;99.90
66629;DHT22;53532;53.084;6.352;2022-10-16T15:33:13;15.40;99.90
66629;DHT22;53532;53.084;6.352;2022-10-16T15:35:39;15.30;99.90
66629;DHT22;53532;53.084;6.352;2022-10-16T15:38:05;15.30;99.90
66629;DHT22;53532;53.084;6.352;2022-10-16T15:40:30;15.20;99.90
66629;DHT22;53532;53.084;6.352;2022-10-16T15:42:57;15.20;99.90
66629;DHT22;53532;53.084;6.352;2022-10-16T15:45:23;15.20;99.90
66629;DHT22;53532;53.084;6.352;2022-10-16T15:47:49;15.10;99.90
66629;DHT22;53532;53.084;6.352;2022-10-16T15:50:15;15.10;99.90
66629;DHT22;53532;53.084;6.352;2022-10-16T15:52:42;15.00;99.90
66629;DHT22;53532;53.084;6.352;2022-10-16T15:55:09;14.90;99.90
66629;DHT22;53532;53.084;6.352;2022-10-16T15:57:35;14.80;99.90
66629;DHT22;53532;53.084;6.352;2022-10-16T16:00:06;14.80;99.90
66629;DHT22;53532;53.084;6.352;2022-10-16T16:02:33;14.70;99.90
66629;DHT22;53532;53.084;6.352;2022-10-16T16:04:59;14.60;99.90
66629;DHT22;53532;53.084;6.352;2022-10-16T16:07:24;14.60;99.90
66629;DHT22;53532;53.084;6.352;2022-10-16T16:09:50;14.50;99.90
66629;DHT22;53532;53.084;6.352;2022-10-16T16:12:16;14.40;99.90
66629;DHT22;53532;53.084;6.352;2022-10-16T16:14:42;14.40;99.90
66629;DHT22;53532;53.084;6.352;2022-10-16T16:17:10;14.30;99.90
66629;DHT22;53532;53.084;6.352;2022-10-16T16:19:35;14.20;99.90
66629;DHT22;53532;53.084;6.352;2022-10-16T16:22:01;14.10;99.90
66629;DHT22;53532;53.084;6.352;2022-10-16T16:24:27;14.00;99.90
66629;DHT22;53532;53.084;6.352;2022-10-16T16:26:52;14.00;99.90
66629;DHT22;53532;53.084;6.352;2022-10-16T16:29:18;13.90;99.90
66629;DHT22;53532;53.084;6.352;2022-10-16T16:31:44;13.80;99.90
66629;DHT22;53532;53.084;6.352;2022-10-16T16:34:14;13.70;99.90
66629;DHT22;53532;53.084;6.352;2022-10-16T16:36:39;13.70;99.90
66629;DHT22;53532;53.084;6.352;2022-10-16T16:39:06;13.50;99.90
66629;DHT22;53532;53.084;6.352;2022-10-16T16:41:33;13.50;99.90
66629;DHT22;53532;53.084;6.352;2022-10-16T16:44:03;13.40;99.90
66629;DHT22;53532;53.084;6.352;2022-10-16T16:46:30;13.40;99.90
66629;DHT22;53532;53.084;6.352;2022-10-16T16:48:58;13.30;99.90
66629;DHT22;53532;53.084;6.352;2022-10-16T16:51:25;13.20;99.90
66629;DHT22;53532;53.084;6.352;2022-10-16T16:53:52;13.10;99.90
66629;DHT22;53532;53.084;6.352;2022-10-16T16:56:18;13.10;99.90
66629;DHT22;53532;53.084;6.352;2022-10-16T16:58:45;13.00;99.90
66629;DHT22;53532;53.084;6.352;2022-10-16T17:01:11;12.90;99.90
66629;DHT22;53532;53.084;6.352;2022-10-16T17:03:37;12.90;99.90
66629;DHT22;53532;53.084;6.352;2022-10-16T17:06:05;12.80;99.90
66629;DHT22;53532;53.084;6.352;2022-10-16T17:08:32;12.80;99.90
66629;DHT22;53532;53.084;6.352;2022-10-16T17:10:58;12.70;99.90
66629;DHT22;53532;53.084;6.352;2022-10-16T17:13:25;12.60;99.90
66629;DHT22;53532;53.084;6.352;2022-10-16T17:15:52;12.50;99.90
66629;DHT22;53532;53.084;6.352;2022-10-16T17:18:19;12.50;99.90
66629;DHT22;53532;53.084;6.352;2022-10-16T17:20:45;12.40;99.90
66629;DHT22;53532;53.084;6.352;2022-10-16T17:23:11;12.40;99.90
66629;DHT22;53532;53.084;6.352;2022-10-16T17:25:39;12.30;99.90
66629;DHT22;53532;53.084;6.352;2022-10-16T17:28:06;12.30;99.90
66629;DHT22;53532;53.084;6.352;2022-10-16T17:30:33;12.20;99.90
66629;DHT22;53532;53.084;6.352;2022-10-16T17:33:00;12.20;99.90
66629;DHT22;53532;53.084;6.352;2022-10-16T17:35:25;12.10;99.90
66629;DHT22;53532;53.084;6.352;2022-10-16T17:37:51;12.10;99.90
66629;DHT22;53532;53.084;6.352;2022-10-16T17:40:18;12.10;99.90
66629;DHT22;53532;53.084;6.352;2022-10-16T17:42:45;12.10;99.90
66629;DHT22;53532;53.084;6.352;2022-10-16T17:45:13;12.00;99.90
66629;DHT22;53532;53.084;6.352;2022-10-16T17:47:39;12.00;99.90
66629;DHT22;53532;53.084;6.352;2022-10-16T17:50:07;11.90;99.90
66629;DHT22;53532;53.084;6.352;2022-10-16T17:52:33;11.90;99.90
66629;DHT22;53532;53.084;6.352;2022-10-16T17:54:58;11.90;99.90
66629;DHT22;53532;53.084;6.352;2022-10-16T17:57:24;11.80;99.90
66629;DHT22;53532;53.084;6.352;2022-10-16T17:59:53;11.80;99.90
66629;DHT22;53532;53.084;6.352;2022-10-16T18:02:19;11.80;99.90
66629;DHT22;53532;53.084;6.352;2022-10-16T18:04:45;11.80;99.90
66629;DHT22;53532;53.084;6.352;2022-10-16T18:07:10;11.70;99.90
66629;DHT22;53532;53.084;6.352;2022-10-16T18:09:37;11.80;99.90
66629;DHT22;53532;53.084;6.352;2022-10-16T18:12:03;11.70;99.90
66629;DHT22;53532;53.084;6.352;2022-10-16T18:14:31;11.70;99.90
66629;DHT22;53532;53.084;6.352;2022-10-16T18:16:58;11.70;99.90
66629;DHT22;53532;53.084;6.352;2022-10-16T18:19:24;11.70;99.90
66629;DHT22;53532;53.084;6.352;2022-10-16T18:21:51;11.60;99.90
66629;DHT22;53532;53.084;6.352;2022-10-16T18:24:17;11.60;99.90
66629;DHT22;53532;53.084;6.352;2022-10-16T18:26:43;11.60;99.90
66629;DHT22;53532;53.084;6.352;2022-10-16T18:29:10;11.60;99.90
66629;DHT22;53532;53.084;6.352;2022-10-16T18:31:36;11.50;99.90
66629;DHT22;53532;53.084;6.352;2022-10-16T18:34:03;11.50;99.90
66629;DHT22;53532;53.084;6.352;2022-10-16T18:36:31;11.50;99.90
66629;DHT22;53532;53.084;6.352;2022-10-16T18:38:58;11.50;99.90
66629;DHT22;53532;53.084;6.352;2022-10-16T18:41:24;11.50;99.90
66629;DHT22;53532;53.084;6.352;2022-10-16T18:43:50;11.50;99.90
66629;DHT22;53532;53.084;6.352;2022-10-16T18:46:17;11.50;99.90
66629;DHT22;53532;53.084;6.352;2022-10-16T18:48:44;11.40;99.90
66629;DHT22;53532;53.084;6.352;2022-10-16T18:51:15;11.40;99.90
66629;DHT22;53532;53.084;6.352;2022-10-16T18:53:43;11.40;99.90
66629;DHT22;53532;53.084;6.352;2022-10-16T18:56:10;11.40;99.90
66629;DHT22;53532;53.084;6.352;2022-10-16T18:58:36;11.40;99.90
66629;DHT22;53532;53.084;6.352;2022-10-16T19:01:04;11.40;99.90
66629;DHT22;53532;53.084;6.352;2022-10-16T19:03:30;11.40;99.90
66629;DHT22;53532;53.084;6.352;2022-10-16T19:05:59;11.40;99.90
66629;DHT22;53532;53.084;6.352;2022-10-16T19:08:26;11.40;99.90
66629;DHT22;53532;53.084;6.352;2022-10-16T19:10:51;11.40;99.90
66629;DHT22;53532;53.084;6.352;2022-10-16T19:13:17;11.40;99.90
66629;DHT22;53532;53.084;6.352;2022-10-16T19:15:43;11.40;99.90
66629;DHT22;53532;53.084;6.352;2022-10-16T19:18:09;11.50;99.90
66629;DHT22;53532;53.084;6.352;2022-10-16T19:20:34;11.40;99.90
66629;DHT22;53532;53.084;6.352;2022-10-16T19:23:00;11.40;99.90
66629;DHT22;53532;53.084;6.352;2022-10-16T19:25:28;11.50;99.90
66629;DHT22;53532;53.084;6.352;2022-10-16T19:27:54;11.40;99.90
66629;DHT22;53532;53.084;6.352;2022-10-16T19:30:19;11.50;99.90
66629;DHT22;53532;53.084;6.352;2022-10-16T19:32:45;11.50;99.90
66629;DHT22;53532;53.084;6.352;2022-10-16T19:35:14;11.50;99.90
66629;DHT22;53532;53.084;6.352;2022-10-16T19:37:40;11.50;99.90
66629;DHT22;53532;53.084;6.352;2022-10-16T19:40:06;11.50;99.90
66629;DHT22;53532;53.084;6.352;2022-10-16T19:42:33;11.50;99.90
66629;DHT22;53532;53.084;6.352;2022-10-16T19:45:00;11.50;99.90
66629;DHT22;53532;53.084;6.352;2022-10-16T19:47:26;11.50;99.90
66629;DHT22;53532;53.084;6.352;2022-10-16T19:49:52;11.50;99.90
66629;DHT22;53532;53.084;6.352;2022-10-16T19:52:18;11.50;99.90
66629;DHT22;53532;53.084;6.352;2022-10-16T19:54:46;11.50;99.90
66629;DHT22;53532;53.084;6.352;2022-10-16T19:57:12;11.50;99.90
66629;DHT22;53532;53.084;6.352;2022-10-16T19:59:39;11.50;99.90
66629;DHT22;53532;53.084;6.352;2022-10-16T20:02:05;11.50;99.90
66629;DHT22;53532;53.084;6.352;2022-10-16T20:04:30;11.50;99.90
66629;DHT22;53532;53.084;6.352;2022-10-16T20:06:56;11.60;99.90
66629;DHT22;53532;53.084;6.352;2022-10-16T20:09:22;11.50;99.90
66629;DHT22;53532;53.084;6.352;2022-10-16T20:11:47;11.50;99.90
66629;DHT22;53532;53.084;6.352;2022-10-16T20:14:13;11.50;99.90
66629;DHT22;53532;53.084;6.352;2022-10-16T20:16:40;11.50;99.90
66629;DHT22;53532;53.084;6.352;2022-10-16T20:19:06;11.50;99.90
66629;DHT22;53532;53.084;6.352;2022-10-16T20:21:33;11.50;99.90
66629;DHT22;53532;53.084;6.352;2022-10-16T20:24:00;11.60;99.90
66629;DHT22;53532;53.084;6.352;2022-10-16T20:26:26;11.60;99.90
66629;DHT22;53532;53.084;6.352;2022-10-16T20:28:53;11.60;99.90
66629;DHT22;53532;53.084;6.352;2022-10-16T20:31:20;11.50;99.90
66629;DHT22;53532;53.084;6.352;2022-10-16T20:33:48;11.60;99.90
66629;DHT22;53532;53.084;6.352;2022-10-16T20:36:15;11.50;99.90
66629;DHT22;53532;53.084;6.352;2022-10-16T20:38:42;11.60;99.90
66629;DHT22;53532;53.084;6.352;2022-10-16T20:41:08;11.60;99.90
66629;DHT22;53532;53.084;6.352;2022-10-16T20:43:35;11.60;99.90
66629;DHT22;53532;53.084;6.352;2022-10-16T20:46:02;11.60;99.90
66629;DHT22;53532;53.084;6.352;2022-10-16T20:48:28;11.70;99.90
66629;DHT22;53532;53.084;6.352;2022-10-16T20:50:56;11.70;99.90
66629;DHT22;53532;53.084;6.352;2022-10-16T20:53:24;11.70;99.90
66629;DHT22;53532;53.084;6.352;2022-10-16T20:55:49;11.70;99.90
66629;DHT22;53532;53.084;6.352;2022-10-16T20:58:15;11.70;99.90
66629;DHT22;53532;53.084;6.352;2022-10-16T21:00:42;11.70;99.90
66629;DHT22;53532;53.084;6.352;2022-10-16T21:03:08;11.70;99.90
66629;DHT22;53532;53.084;6.352;2022-10-16T21:05:39;11.70;99.90
66629;DHT22;53532;53.084;6.352;2022-10-16T21:08:06;11.70;99.90
66629;DHT22;53532;53.084;6.352;2022-10-16T21:10:32;11.70;99.90
66629;DHT22;53532;53.084;6.352;2022-10-16T21:12:58;11.70;99.90
66629;DHT22;53532;53.084;6.352;2022-10-16T21:15:24;11.70;99.90
66629;DHT22;53532;53.084;6.352;2022-10-16T21:17:49;11.70;99.90
66629;DHT22;53532;53.084;6.352;2022-10-16T21:20:15;11.80;99.90
66629;DHT22;53532;53.084;6.352;2022-10-16T21:22:41;11.70;99.90
66629;DHT22;53532;53.084;6.352;2022-10-16T21:25:08;11.80;99.90
66629;DHT22;53532;53.084;6.352;2022-10-16T21:27:35;11.80;99.90
66629;DHT22;53532;53.084;6.352;2022-10-16T21:30:02;11.80;99.90
66629;DHT22;53532;53.084;6.352;2022-10-16T21:32:27;11.80;99.90
66629;DHT22;53532;53.084;6.352;2022-10-16T21:34:53;11.90;99.90
66629;DHT22;53532;53.084;6.352;2022-10-16T21:37:19;11.90;99.90
66629;DHT22;53532;53.084;6.352;2022-10-16T21:39:44;11.90;99.90
66629;DHT22;53532;53.084;6.352;2022-10-16T21:42:12;11.90;99.90
66629;DHT22;53532;53.084;6.352;2022-10-16T21:44:38;12.00;99.90
66629;DHT22;53532;53.084;6.352;2022-10-16T21:47:04;12.00;99.90
66629;DHT22;53532;53.084;6.352;2022-10-16T21:49:30;12.00;99.90
66629;DHT22;53532;53.084;6.352;2022-10-16T21:51:56;12.10;99.90
66629;DHT22;53532;53.084;6.352;2022-10-16T21:54:22;12.10;99.90
66629;DHT22;53532;53.084;6.352;2022-10-16T21:56:49;12.10;99.90
66629;DHT22;53532;53.084;6.352;2022-10-16T21:59:16;12.20;99.90
66629;DHT22;53532;53.084;6.352;2022-10-16T22:01:42;12.20;99.90
66629;DHT22;53532;53.084;6.352;2022-10-16T22:04:09;12.20;99.90
66629;DHT22;53532;53.084;6.352;2022-10-16T22:06:34;12.20;99.90
66629;DHT22;53532;53.084;6.352;2022-10-16T22:09:00;12.20;99.90
66629;DHT22;53532;53.084;6.352;2022-10-16T22:11:27;12.20;99.90
66629;DHT22;53532;53.084;6.352;2022-10-16T22:13:54;12.20;99.90
66629;DHT22;53532;53.084;6.352;2022-10-16T22:16:22;12.20;99.90
66629;DHT22;53532;53.084;6.352;2022-10-16T22:18:50;12.20;99.90
66629;DHT22;53532;53.084;6.352;2022-10-16T22:21:16;12.30;99.90
66629;DHT22;53532;53.084;6.352;2022-10-16T22:23:42;12.30;99.90
66629;DHT22;53532;53.084;6.352;2022-10-16T22:26:10;12.30;99.90
66629;DHT22;53532;53.084;6.352;2022-10-16T22:28:36;12.40;99.90
66629;DHT22;53532;53.084;6.352;2022-10-16T22:31:04;12.40;99.90
66629;DHT22;53532;53.084;6.352;2022-10-16T22:33:31;12.40;99.90
66629;DHT22;53532;53.084;6.352;2022-10-16T22:35:58;12.40;99.90
66629;DHT22;53532;53.084;6.352;2022-10-16T22:38:24;12.50;99.90
66629;DHT22;53532;53.084;6.352;2022-10-16T22:40:50;12.50;99.90
66629;DHT22;53532;53.084;6.352;2022-10-16T22:43:16;12.50;99.90
66629;DHT22;53532;53.084;6.352;2022-10-16T22:45:41;12.50;99.90
66629;DHT22;53532;53.084;6.352;2022-10-16T22:48:07;12.50;99.90
66629;DHT22;53532;53.084;6.352;2022-10-16T22:50:34;12.60;99.90
66629;DHT22;53532;53.084;6.352;2022-10-16T22:53:00;12.50;99.90
66629;DHT22;53532;53.084;6.352;2022-10-16T22:55:26;12.60;99.90
66629;DHT22;53532;53.084;6.352;2022-10-16T22:57:54;12.60;99.90
66629;DHT22;53532;53.084;6.352;2022-10-16T23:00:20;12.70;99.90
66629;DHT22;53532;53.084;6.352;2022-10-16T23:02:46;12.70;99.90
66629;DHT22;53532;53.084;6.352;2022-10-16T23:05:11;12.70;99.90
66629;DHT22;53532;53.084;6.352;2022-10-16T23:07:39;12.70;99.90
66629;DHT22;53532;53.084;6.352;2022-10-16T23:10:06;12.70;99.90
66629;DHT22;53532;53.084;6.352;2022-10-16T23:12:32;12.80;99.90
66629;DHT22;53532;53.084;6.352;2022-10-16T23:14:58;12.80;99.90
66629;DHT22;53532;53.084;6.352;2022-10-16T23:17:24;12.80;99.90
66629;DHT22;53532;53.084;6.352;2022-10-16T23:19:50;12.80;99.90
66629;DHT22;53532;53.084;6.352;2022-10-16T23:22:15;12.80;99.90
66629;DHT22;53532;53.084;6.352;2022-10-16T23:24:42;12.80;99.90
66629;DHT22;53532;53.084;6.352;2022-10-16T23:27:08;12.80;99.90
66629;DHT22;53532;53.084;6.352;2022-10-16T23:29:34;12.80;99.90
66629;DHT22;53532;53.084;6.352;2022-10-16T23:32:00;12.70;99.90
66629;DHT22;53532;53.084;6.352;2022-10-16T23:34:26;12.80;99.90
66629;DHT22;53532;53.084;6.352;2022-10-16T23:36:52;12.80;99.90
66629;DHT22;53532;53.084;6.352;2022-10-16T23:39:17;12.80;99.90
66629;DHT22;53532;53.084;6.352;2022-10-16T23:41:45;12.70;99.90
66629;DHT22;53532;53.084;6.352;2022-10-16T23:44:10;12.70;99.90
66629;DHT22;53532;53.084;6.352;2022-10-16T23:46:36;12.60;99.90
66629;DHT22;53532;53.084;6.352;2022-10-16T23:49:02;12.60;99.90
66629;DHT22;53532;53.084;6.352;2022-10-16T23:51:27;12.60;99.90
66629;DHT22;53532;53.084;6.352;2022-10-16T23:53:53;12.50;99.90
66629;DHT22;53532;53.084;6.352;2022-10-16T23:56:19;12.50;99.90
66629;DHT22;53532;53.084;6.352;2022-10-16T23:58:46;12.50;99.90
